createdAt,value
2022-11-28T00:00:08.559Z,18.50
2022-11-28T00:03:01.666Z,18.50
2022-11-28T00:05:30.779Z,18.50
2022-11-28T00:07:59.492Z,18.50
2022-11-28T00:10:29.780Z,18.50
2022-11-28T00:12:58.339Z,18.50
2022-11-28T00:15:27.212Z,18.50
2022-11-28T00:17:55.793Z,18.50
2022-11-28T00:20:25.235Z,18.50
2022-11-28T00:22:53.805Z,18.50
2022-11-28T00:25:22.675Z,18.50
2022-11-28T00:27:52.572Z,18.50
2022-11-28T00:30:21.624Z,18.50
2022-11-28T00:32:50.414Z,18.50
2022-11-28T00:35:19.371Z,18.50
2022-11-28T00:37:47.978Z,18.60
2022-11-28T00:40:17.057Z,18.60
2022-11-28T00:42:45.754Z,18.70
2022-11-28T00:45:16.119Z,18.70
2022-11-28T00:47:46.765Z,18.80
2022-11-28T00:50:15.698Z,18.80
2022-11-28T00:52:44.264Z,18.80
2022-11-28T00:55:13.175Z,18.80
2022-11-28T00:57:41.900Z,18.90
2022-11-28T01:00:11.993Z,18.90
2022-11-28T01:02:41.996Z,18.90
2022-11-28T01:05:11.140Z,19.00
2022-11-28T01:07:42.420Z,19.00
2022-11-28T01:10:13.381Z,19.00
2022-11-28T01:12:41.938Z,19.00
2022-11-28T01:15:14.072Z,19.10
2022-11-28T01:17:43.977Z,19.00
2022-11-28T01:20:14.651Z,19.00
2022-11-28T01:22:43.241Z,19.00
2022-11-28T01:25:12.071Z,19.00
2022-11-28T01:27:40.637Z,19.00
2022-11-28T01:30:10.241Z,19.00
2022-11-28T01:32:38.817Z,19.00
2022-11-28T01:35:10.885Z,19.00
2022-11-28T01:37:39.527Z,19.00
2022-11-28T01:40:10.254Z,19.00
2022-11-28T01:42:38.782Z,19.00
2022-11-28T01:45:18.293Z,18.90
2022-11-28T01:47:49.487Z,18.90
2022-11-28T01:50:22.494Z,18.90
2022-11-28T01:52:58.121Z,18.80
2022-11-28T01:55:34.566Z,18.90
2022-11-28T01:58:03.406Z,18.80
2022-11-28T02:00:34.716Z,18.80
2022-11-28T02:03:11.227Z,18.80
2022-11-28T02:05:42.172Z,18.80
2022-11-28T02:08:11.777Z,18.70
2022-11-28T02:11:02.603Z,18.70
2022-11-28T02:13:47.409Z,18.70
2022-11-28T02:16:43.119Z,18.70
2022-11-28T02:20:06.098Z,18.70
2022-11-28T02:22:47.169Z,18.70
2022-11-28T02:25:50.151Z,18.70
2022-11-28T02:29:04.308Z,18.70
2022-11-28T02:32:17.763Z,18.70
2022-11-28T02:34:57.737Z,18.80
2022-11-28T02:37:37.362Z,18.80
2022-11-28T02:40:19.352Z,18.80
2022-11-28T02:43:04.038Z,18.90
2022-11-28T02:45:42.763Z,18.90
2022-11-28T02:48:24.213Z,19.00
2022-11-28T02:51:02.270Z,19.00
2022-11-28T02:53:34.806Z,18.90
2022-11-28T02:56:04.220Z,18.90
2022-11-28T02:58:32.786Z,18.90
2022-11-28T03:01:02.147Z,18.80
2022-11-28T03:04:09.944Z,18.80
2022-11-28T03:06:54.704Z,18.80
2022-11-28T03:09:57.160Z,18.70
2022-11-28T03:12:39.597Z,18.70
2022-11-28T03:15:13.328Z,18.70
2022-11-28T03:17:54.337Z,18.60
2022-11-28T03:20:32.580Z,18.60
2022-11-28T03:23:15.741Z,18.60
2022-11-28T03:25:59.033Z,18.50
2022-11-28T03:28:39.304Z,18.50
2022-11-28T03:31:16.841Z,18.50
2022-11-28T03:33:52.875Z,18.50
2022-11-28T03:36:29.041Z,18.50
2022-11-28T03:39:05.814Z,18.50
2022-11-28T03:41:39.709Z,18.50
2022-11-28T03:44:16.583Z,18.60
2022-11-28T03:46:51.385Z,18.60
2022-11-28T03:49:28.303Z,18.50
2022-11-28T03:52:04.549Z,18.60
2022-11-28T03:54:41.632Z,18.60
2022-11-28T03:57:16.540Z,18.70
2022-11-28T03:59:50.394Z,18.60
2022-11-28T04:02:30.623Z,18.70
2022-11-28T04:05:08.165Z,18.60
2022-11-28T04:07:46.878Z,18.60
2022-11-28T04:10:23.409Z,18.60
2022-11-28T04:13:00.354Z,18.60
2022-11-28T04:15:40.629Z,18.60
2022-11-28T04:18:24.738Z,18.60
2022-11-28T04:21:03.245Z,18.50
2022-11-28T04:23:36.778Z,18.50
2022-11-28T04:26:15.097Z,18.50
2022-11-28T04:28:46.581Z,18.50
2022-11-28T04:31:22.444Z,18.50
2022-11-28T04:33:58.461Z,18.40
2022-11-28T04:36:30.016Z,18.40
2022-11-28T04:39:02.149Z,18.40
2022-11-28T04:41:38.603Z,18.40
2022-11-28T04:44:17.982Z,18.30
2022-11-28T04:46:55.023Z,18.30
2022-11-28T04:49:26.968Z,18.30
2022-11-28T04:52:05.168Z,18.20
2022-11-28T04:54:45.490Z,18.20
2022-11-28T04:57:20.350Z,18.20
2022-11-28T04:59:50.703Z,18.20
2022-11-28T05:02:22.533Z,18.20
2022-11-28T05:04:53.251Z,18.20
2022-11-28T05:07:24.214Z,18.10
2022-11-28T05:09:55.698Z,18.10
2022-11-28T05:12:24.679Z,18.10
2022-11-28T05:14:53.263Z,18.10
2022-11-28T05:17:22.088Z,18.10
2022-11-28T05:19:50.820Z,18.10
2022-11-28T05:22:19.699Z,18.10
2022-11-28T05:24:48.239Z,18.10
2022-11-28T05:27:18.508Z,18.20
2022-11-28T05:29:52.062Z,18.20
2022-11-28T05:32:21.347Z,18.20
2022-11-28T05:34:49.915Z,18.20
2022-11-28T05:37:18.948Z,18.20
2022-11-28T05:39:47.498Z,18.20
2022-11-28T05:42:16.360Z,18.20
2022-11-28T05:44:47.870Z,18.20
2022-11-28T05:47:16.939Z,18.20
2022-11-28T05:49:48.259Z,18.20
2022-11-28T05:52:17.262Z,18.20
2022-11-28T05:54:45.815Z,18.10
2022-11-28T05:57:14.658Z,18.20
2022-11-28T05:59:43.632Z,18.10
2022-11-28T06:02:14.136Z,18.10
2022-11-28T06:04:43.254Z,18.00
2022-11-28T06:07:12.219Z,18.00
2022-11-28T06:09:41.217Z,17.90
2022-11-28T06:12:10.268Z,17.90
2022-11-28T06:14:39.207Z,17.80
2022-11-28T06:17:08.052Z,17.80
2022-11-28T06:19:38.272Z,17.80
2022-11-28T06:22:07.121Z,17.80
2022-11-28T06:24:35.682Z,17.80
2022-11-28T06:27:04.564Z,17.90
2022-11-28T06:29:33.381Z,17.90
2022-11-28T06:32:02.274Z,17.80
2022-11-28T06:34:32.496Z,17.90
2022-11-28T06:37:02.769Z,17.90
2022-11-28T06:39:32.044Z,17.80
2022-11-28T06:42:00.877Z,17.80
2022-11-28T06:44:29.712Z,17.80
2022-11-28T06:46:58.538Z,17.80
2022-11-28T06:49:27.161Z,17.90
2022-11-28T06:51:55.978Z,17.90
2022-11-28T06:54:25.868Z,17.90
2022-11-28T06:56:54.704Z,17.90
2022-11-28T06:59:23.443Z,17.90
2022-11-28T07:01:52.431Z,17.90
2022-11-28T07:04:21.818Z,17.90
2022-11-28T07:06:50.684Z,17.90
2022-11-28T07:09:19.370Z,17.90
2022-11-28T07:11:49.584Z,17.90
2022-11-28T07:14:18.135Z,17.90
2022-11-28T07:16:47.436Z,17.90
2022-11-28T07:19:16.720Z,17.90
2022-11-28T07:21:45.582Z,18.00
2022-11-28T07:24:14.888Z,18.00
2022-11-28T07:26:43.722Z,18.00
2022-11-28T07:29:16.768Z,18.00
2022-11-28T07:31:46.557Z,18.00
2022-11-28T07:34:16.335Z,18.00
2022-11-28T07:36:45.423Z,18.00
2022-11-28T07:39:18.566Z,18.00
2022-11-28T07:41:47.445Z,18.10
2022-11-28T07:44:18.177Z,18.10
2022-11-28T07:46:47.959Z,18.10
2022-11-28T07:49:16.956Z,18.20
2022-11-28T07:51:45.818Z,18.20
2022-11-28T07:54:14.565Z,18.20
2022-11-28T07:59:33.623Z,18.20
2022-11-28T08:02:02.560Z,18.20
2022-11-28T08:04:31.272Z,18.20
2022-11-28T08:07:00.144Z,18.30
2022-11-28T08:09:28.762Z,18.30
2022-11-28T08:11:57.630Z,18.30
2022-11-28T08:14:26.553Z,18.30
2022-11-28T08:16:56.895Z,18.30
2022-11-28T08:19:27.347Z,18.30
2022-11-28T08:21:58.308Z,18.30
2022-11-28T08:24:27.290Z,18.30
2022-11-28T08:26:56.136Z,18.30
2022-11-28T08:29:24.732Z,18.30
2022-11-28T08:31:53.698Z,18.30
2022-11-28T08:34:23.666Z,18.30
2022-11-28T08:36:52.530Z,18.30
2022-11-28T08:39:25.335Z,18.30
2022-11-28T08:41:57.200Z,18.30
2022-11-28T08:44:26.922Z,18.30
2022-11-28T08:46:56.847Z,18.30
2022-11-28T08:49:26.809Z,18.30
2022-11-28T08:51:56.044Z,18.30
2022-11-28T08:54:24.737Z,18.30
2022-11-28T08:56:53.588Z,18.20
2022-11-28T08:59:22.432Z,18.20
2022-11-28T09:01:53.786Z,18.20
2022-11-28T09:04:23.820Z,18.20
2022-11-28T09:06:54.268Z,18.30
2022-11-28T09:09:22.983Z,18.20
2022-11-28T09:11:51.871Z,18.20
2022-11-28T09:14:20.467Z,18.20
2022-11-28T09:16:50.510Z,18.30
2022-11-28T09:19:19.156Z,18.30
2022-11-28T09:21:49.317Z,18.40
2022-11-28T09:24:21.954Z,18.40
2022-11-28T09:26:50.799Z,18.60
2022-11-28T09:29:19.534Z,18.60
2022-11-28T09:31:48.365Z,18.60
2022-11-28T09:34:17.273Z,18.60
2022-11-28T09:36:46.157Z,18.60
2022-11-28T09:39:14.724Z,18.60
2022-11-28T09:42:04.413Z,18.50
2022-11-28T09:44:44.110Z,18.60
2022-11-28T09:47:21.133Z,18.60
2022-11-28T09:49:58.167Z,18.70
2022-11-28T09:52:37.667Z,18.70
2022-11-28T09:55:18.816Z,18.80
2022-11-28T09:57:52.083Z,18.80
2022-11-28T10:00:24.037Z,18.80
2022-11-28T10:03:26.743Z,18.80
2022-11-28T10:06:11.232Z,18.80
2022-11-28T10:09:17.437Z,18.80
2022-11-28T10:12:03.448Z,18.80
2022-11-28T10:15:03.575Z,18.70
2022-11-28T10:17:47.232Z,18.80
2022-11-28T10:20:23.871Z,18.90
2022-11-28T10:22:58.642Z,18.90
2022-11-28T10:25:34.758Z,19.00
2022-11-28T10:28:07.702Z,19.10
2022-11-28T10:30:42.957Z,19.10
2022-11-28T10:33:24.944Z,19.10
2022-11-28T10:35:58.644Z,19.10
2022-11-28T10:38:30.756Z,19.10
2022-11-28T10:41:09.060Z,19.00
2022-11-28T10:43:46.977Z,19.00
2022-11-28T10:46:40.399Z,18.90
2022-11-28T10:49:31.894Z,18.90
2022-11-28T10:52:14.167Z,18.90
2022-11-28T10:55:08.330Z,18.90
2022-11-28T10:57:46.443Z,18.90
2022-11-28T11:00:18.266Z,19.00
2022-11-28T11:02:52.444Z,19.00
2022-11-28T11:05:26.984Z,19.00
2022-11-28T11:07:59.483Z,19.00
2022-11-28T11:10:37.700Z,19.10
2022-11-28T11:13:17.595Z,19.10
2022-11-28T11:15:48.404Z,19.10
2022-11-28T11:18:28.821Z,19.10
2022-11-28T11:21:14.488Z,19.10
2022-11-28T11:23:44.004Z,19.10
2022-11-28T11:26:26.165Z,19.10
2022-11-28T11:28:55.772Z,19.10
2022-11-28T11:31:28.889Z,19.10
2022-11-28T11:34:09.023Z,19.00
2022-11-28T11:36:38.839Z,19.00
2022-11-28T11:39:25.471Z,19.00
2022-11-28T11:42:13.258Z,18.90
2022-11-28T11:44:43.804Z,18.90
2022-11-28T11:47:12.692Z,18.90
2022-11-28T11:49:46.553Z,18.90
2022-11-28T11:52:25.491Z,18.90
2022-11-28T11:55:01.041Z,18.80
2022-11-28T11:57:38.131Z,18.90
2022-11-28T12:00:17.056Z,18.90
2022-11-28T12:02:48.231Z,19.00
2022-11-28T12:05:22.035Z,19.00
2022-11-28T12:08:01.027Z,19.00
2022-11-28T12:10:35.468Z,19.00
2022-11-28T12:13:04.919Z,19.00
2022-11-28T12:15:52.897Z,19.10
2022-11-28T12:18:36.219Z,19.10
2022-11-28T12:21:31.146Z,19.10
2022-11-28T12:24:13.233Z,19.10
2022-11-28T12:26:48.901Z,19.10
2022-11-28T12:29:47.450Z,19.20
2022-11-28T12:32:39.548Z,19.20
2022-11-28T12:35:28.644Z,19.20
2022-11-28T12:38:19.168Z,19.20
2022-11-28T12:41:23.231Z,19.20
2022-11-28T12:44:09.524Z,19.20
2022-11-28T12:46:53.148Z,19.20
2022-11-28T12:49:36.544Z,19.20
2022-11-28T12:52:32.853Z,19.20
2022-11-28T12:55:30.108Z,19.20
2022-11-28T12:58:13.705Z,19.10
2022-11-28T13:00:58.556Z,19.10
2022-11-28T13:03:42.287Z,19.10
2022-11-28T13:06:32.912Z,19.10
2022-11-28T13:09:28.957Z,19.10
2022-11-28T13:12:21.445Z,19.10
2022-11-28T13:14:56.962Z,19.10
2022-11-28T13:17:43.634Z,19.10
2022-11-28T13:20:26.428Z,19.10
2022-11-28T13:23:19.134Z,19.10
2022-11-28T13:25:57.390Z,19.00
2022-11-28T13:28:35.919Z,19.00
2022-11-28T13:31:14.079Z,19.00
2022-11-28T13:33:52.204Z,18.90
2022-11-28T13:39:37.007Z,18.90
2022-11-28T13:45:32.377Z,18.90
2022-11-28T13:48:32.226Z,18.90
2022-11-28T13:51:23.986Z,18.90
2022-11-28T13:54:45.284Z,18.90
2022-11-28T13:57:39.791Z,18.80
2022-11-28T14:00:25.140Z,18.90
2022-11-28T14:02:58.269Z,18.90
2022-11-28T14:05:36.387Z,18.80
2022-11-28T14:08:07.688Z,18.80
2022-11-28T14:11:01.221Z,18.70
2022-11-28T14:14:04.034Z,18.60
2022-11-28T14:16:52.788Z,18.60
2022-11-28T14:19:46.464Z,18.60
2022-11-28T14:22:35.350Z,18.50
2022-11-28T14:25:18.001Z,18.50
2022-11-28T14:27:54.814Z,18.40
2022-11-28T14:30:35.327Z,18.40
2022-11-28T14:33:18.169Z,18.40
2022-11-28T14:36:23.680Z,18.40
2022-11-28T14:39:33.517Z,18.50
2022-11-28T14:42:59.526Z,18.50
2022-11-28T14:45:45.948Z,18.50
2022-11-28T14:48:28.554Z,18.50
2022-11-28T14:51:01.902Z,18.50
2022-11-28T14:53:45.694Z,18.50
2022-11-28T14:56:29.074Z,18.40
2022-11-28T14:59:03.506Z,18.40
2022-11-28T15:01:50.602Z,18.40
2022-11-28T15:04:51.964Z,18.40
2022-11-28T15:07:36.502Z,18.40
2022-11-28T15:10:18.219Z,18.50
2022-11-28T15:13:05.718Z,18.50
2022-11-28T15:15:34.958Z,18.50
2022-11-28T15:18:06.506Z,18.50
2022-11-28T15:20:47.553Z,18.60
2022-11-28T15:23:29.957Z,18.70
2022-11-28T15:26:02.105Z,18.60
2022-11-28T15:28:35.492Z,18.60
2022-11-28T15:31:06.655Z,18.50
2022-11-28T15:33:35.580Z,18.50
2022-11-28T15:36:20.008Z,18.50
2022-11-28T15:38:48.703Z,18.50
2022-11-28T15:41:23.806Z,18.40
2022-11-28T15:43:55.146Z,18.40
2022-11-28T15:46:33.692Z,18.30
2022-11-28T15:49:03.994Z,18.40
2022-11-28T15:51:36.092Z,18.40
2022-11-28T15:54:28.600Z,18.50
2022-11-28T15:56:58.315Z,18.50
2022-11-28T15:59:27.670Z,18.60
2022-11-28T16:02:02.699Z,18.60
2022-11-28T16:04:32.727Z,18.60
2022-11-28T16:07:03.437Z,18.60
2022-11-28T16:09:36.251Z,18.60
2022-11-28T16:12:15.254Z,18.70
2022-11-28T16:14:46.488Z,18.70
2022-11-28T16:17:21.443Z,18.70
2022-11-28T16:19:53.816Z,18.70
2022-11-28T16:22:34.923Z,18.70
2022-11-28T16:25:22.314Z,18.70
2022-11-28T16:27:53.375Z,18.70
2022-11-28T16:30:36.954Z,18.70
2022-11-28T16:33:38.455Z,18.70
2022-11-28T16:36:21.631Z,18.60
2022-11-28T16:38:54.691Z,18.60
2022-11-28T16:41:26.058Z,18.70
2022-11-28T16:44:00.253Z,18.60
2022-11-28T16:46:37.707Z,18.50
2022-11-28T16:49:33.147Z,18.50
2022-11-28T16:52:46.038Z,18.40
2022-11-28T16:55:46.436Z,18.20
2022-11-28T16:58:22.474Z,18.10
2022-11-28T17:01:01.105Z,18.10
2022-11-28T17:03:49.265Z,18.10
2022-11-28T17:06:28.133Z,18.10
2022-11-28T17:08:57.535Z,18.00
2022-11-28T17:11:31.822Z,18.00
2022-11-28T17:14:02.692Z,18.00
2022-11-28T17:16:35.988Z,18.10
2022-11-28T17:19:04.960Z,18.10
2022-11-28T17:21:41.793Z,18.00
2022-11-28T17:24:18.602Z,18.00
2022-11-28T17:26:47.926Z,18.00
2022-11-28T17:29:17.270Z,18.00
2022-11-28T17:31:48.415Z,18.00
2022-11-28T17:34:19.316Z,18.00
2022-11-28T17:36:49.816Z,18.10
2022-11-28T17:39:21.032Z,18.10
2022-11-28T17:41:51.185Z,18.10
2022-11-28T17:44:22.377Z,18.10
2022-11-28T17:46:53.273Z,18.00
2022-11-28T17:49:23.508Z,18.10
2022-11-28T17:51:55.994Z,18.00
2022-11-28T17:54:27.873Z,18.00
2022-11-28T17:56:57.009Z,18.00
2022-11-28T17:59:27.124Z,17.90
2022-11-28T18:01:56.138Z,17.90
2022-11-28T18:04:26.721Z,17.80
2022-11-28T18:06:56.982Z,17.80
2022-11-28T18:09:26.692Z,17.80
2022-11-28T18:11:55.609Z,17.80
2022-11-28T18:14:24.405Z,17.80
2022-11-28T18:16:53.087Z,17.80
2022-11-28T18:19:22.010Z,17.70
2022-11-28T18:21:50.697Z,17.70
2022-11-28T18:24:21.021Z,17.80
2022-11-28T18:26:49.591Z,17.90
2022-11-28T18:29:18.714Z,17.90
2022-11-28T18:31:47.627Z,17.90
2022-11-28T18:34:18.211Z,17.90
2022-11-28T18:36:46.889Z,17.90
2022-11-28T18:39:17.115Z,17.80
2022-11-28T18:41:47.984Z,17.70
2022-11-28T18:44:17.226Z,17.60
2022-11-28T18:46:45.855Z,17.60
2022-11-28T18:49:16.627Z,17.60
2022-11-28T18:51:45.262Z,17.60
2022-11-28T18:54:20.536Z,17.50
2022-11-28T18:56:51.132Z,17.50
2022-11-28T18:59:20.204Z,17.50
2022-11-28T19:01:49.258Z,17.60
2022-11-28T19:04:19.148Z,17.50
2022-11-28T19:06:48.616Z,17.50
2022-11-28T19:09:19.108Z,17.50
2022-11-28T19:11:47.910Z,17.50
2022-11-28T19:14:21.217Z,17.40
2022-11-28T19:16:50.289Z,17.30
2022-11-28T19:19:19.821Z,17.30
2022-11-28T19:21:50.883Z,17.20
2022-11-28T19:24:20.548Z,17.10
2022-11-28T19:26:50.658Z,17.10
2022-11-28T19:29:21.048Z,17.00
2022-11-28T19:31:50.335Z,17.00
2022-11-28T19:34:20.621Z,16.90
2022-11-28T19:36:52.053Z,16.90
2022-11-28T19:39:23.922Z,17.00
2022-11-28T19:41:54.490Z,16.90
2022-11-28T19:44:28.961Z,17.00
2022-11-28T19:46:57.633Z,17.00
2022-11-28T19:49:26.550Z,17.00
2022-11-28T19:51:55.581Z,16.90
2022-11-28T19:54:25.569Z,16.90
2022-11-28T19:56:56.623Z,17.00
2022-11-28T19:59:27.351Z,17.00
2022-11-28T20:01:56.204Z,16.90
2022-11-28T20:04:25.162Z,16.90
2022-11-28T20:06:54.412Z,16.90
2022-11-28T20:09:23.481Z,16.90
2022-11-28T20:11:52.095Z,16.80
2022-11-28T20:14:22.250Z,16.80
2022-11-28T20:16:53.169Z,16.90
2022-11-28T20:19:22.874Z,16.90
2022-11-28T20:21:51.537Z,16.90
2022-11-28T20:24:22.062Z,16.70
2022-11-28T20:26:51.971Z,16.60
2022-11-28T20:29:26.733Z,16.60
2022-11-28T20:31:57.591Z,16.70
2022-11-28T20:34:28.784Z,16.70
2022-11-28T20:36:59.332Z,16.70
2022-11-28T20:39:28.211Z,16.80
2022-11-28T20:41:56.864Z,16.80
2022-11-28T20:44:25.784Z,16.90
2022-11-28T20:46:55.969Z,16.90
2022-11-28T20:49:24.896Z,16.90
2022-11-28T20:51:53.475Z,16.90
2022-11-28T20:54:22.468Z,16.90
2022-11-28T20:57:19.567Z,16.90
2022-11-28T20:59:41.546Z,16.80
2022-11-28T21:02:12.710Z,16.90
2022-11-28T21:04:41.621Z,16.90
2022-11-28T21:07:10.310Z,16.90
2022-11-28T21:09:39.164Z,16.90
2022-11-28T21:12:08.795Z,16.80
2022-11-28T21:14:37.626Z,16.80
2022-11-28T21:17:06.223Z,16.80
2022-11-28T21:19:36.404Z,16.80
2022-11-28T21:22:05.079Z,16.80
2022-11-28T21:24:34.045Z,16.70
2022-11-28T21:27:02.589Z,16.70
2022-11-28T21:29:31.433Z,16.80
2022-11-28T21:32:00.028Z,16.80
2022-11-28T21:34:28.973Z,16.80
2022-11-28T21:36:58.847Z,16.80
2022-11-28T21:39:28.112Z,16.80
2022-11-28T21:41:56.883Z,16.80
2022-11-28T21:44:25.707Z,16.80
2022-11-28T21:46:54.315Z,16.80
2022-11-28T21:49:24.081Z,16.90
2022-11-28T21:51:55.324Z,16.90
2022-11-28T21:54:27.717Z,16.90
2022-11-28T21:56:56.412Z,16.90
2022-11-28T21:59:25.912Z,17.00
2022-11-28T22:01:56.179Z,17.00
2022-11-28T22:04:25.707Z,17.00
2022-11-28T22:06:54.371Z,17.00
2022-11-28T22:09:23.240Z,17.00
2022-11-28T22:11:53.276Z,17.00
2022-11-28T22:14:22.344Z,17.00
2022-11-28T22:16:50.928Z,17.00
2022-11-28T22:19:20.103Z,17.00
2022-11-28T22:21:52.031Z,17.00
2022-11-28T22:24:23.836Z,16.90
2022-11-28T22:26:54.188Z,16.90
2022-11-28T22:29:23.428Z,17.00
2022-11-28T22:31:52.143Z,17.00
2022-11-28T22:34:21.292Z,17.10
2022-11-28T22:36:49.934Z,17.10
2022-11-28T22:39:22.122Z,17.10
2022-11-28T22:41:51.155Z,17.10
2022-11-28T22:44:23.329Z,17.10
2022-11-28T22:46:52.011Z,17.00
2022-11-28T22:49:20.920Z,17.10
2022-11-28T22:51:49.611Z,17.10
2022-11-28T22:54:18.593Z,17.10
2022-11-28T22:56:47.205Z,17.10
2022-11-28T22:59:17.756Z,17.00
2022-11-28T23:01:48.134Z,17.00
2022-11-28T23:04:17.288Z,17.00
2022-11-28T23:06:45.916Z,17.00
2022-11-28T23:09:15.626Z,17.00
2022-11-28T23:11:46.124Z,17.00
2022-11-28T23:14:16.439Z,17.00
2022-11-28T23:16:47.023Z,17.10
2022-11-28T23:19:18.467Z,17.10
2022-11-28T23:21:49.995Z,17.10
2022-11-28T23:24:23.456Z,17.10
2022-11-28T23:26:53.676Z,17.10
2022-11-28T23:29:22.551Z,17.10
2022-11-28T23:31:52.563Z,17.00
2022-11-28T23:34:21.793Z,17.10
2022-11-28T23:36:50.668Z,17.00
2022-11-28T23:39:23.291Z,17.00
2022-11-28T23:41:52.270Z,17.00
2022-11-28T23:44:21.726Z,17.00
2022-11-28T23:46:50.341Z,17.00
2022-11-28T23:49:20.600Z,17.00
2022-11-28T23:51:49.166Z,17.00
2022-11-28T23:54:18.611Z,17.00
2022-11-28T23:56:47.185Z,17.00
2022-11-28T23:59:16.082Z,17.00
